createdAt,value
2018-12-13T00:00:44.380Z,2.00
2018-12-13T00:03:12.513Z,1.92
2018-12-13T00:05:40.741Z,1.89
2018-12-13T00:08:08.960Z,1.94
2018-12-13T00:10:37.195Z,1.69
2018-12-13T00:13:05.305Z,1.85
2018-12-13T00:15:33.741Z,1.98
2018-12-13T00:18:01.913Z,2.01
2018-12-13T00:20:30.207Z,1.99
2018-12-13T00:22:58.283Z,2.01
2018-12-13T00:25:26.525Z,2.03
2018-12-13T00:27:54.839Z,1.98
2018-12-13T00:30:23.160Z,1.92
2018-12-13T00:32:51.561Z,2.04
2018-12-13T00:35:19.892Z,2.10
2018-12-13T00:37:48.172Z,2.07
2018-12-13T00:40:16.474Z,1.88
2018-12-13T00:42:44.582Z,2.03
2018-12-13T00:45:12.683Z,2.06
2018-12-13T00:47:41.006Z,1.95
2018-12-13T00:50:09.353Z,2.05
2018-12-13T00:52:37.625Z,2.04
2018-12-13T00:55:06.084Z,2.00
2018-12-13T00:57:34.240Z,2.08
2018-12-13T01:00:02.421Z,2.08
2018-12-13T01:02:30.725Z,1.84
2018-12-13T01:04:58.854Z,1.74
2018-12-13T01:07:27.177Z,1.59
2018-12-13T01:09:55.279Z,1.42
2018-12-13T01:12:23.478Z,1.31
2018-12-13T01:14:51.605Z,1.22
2018-12-13T01:17:19.928Z,0.99
2018-12-13T01:19:48.039Z,0.98
2018-12-13T01:22:16.098Z,1.00
2018-12-13T01:24:44.326Z,0.93
2018-12-13T01:27:12.460Z,0.86
2018-12-13T01:29:40.594Z,0.84
2018-12-13T01:32:08.845Z,0.93
2018-12-13T01:34:36.991Z,1.01
2018-12-13T01:37:05.116Z,1.08
2018-12-13T01:39:33.193Z,1.11
2018-12-13T01:42:01.515Z,1.25
2018-12-13T01:44:29.682Z,1.40
2018-12-13T01:46:57.836Z,1.51
2018-12-13T01:49:25.985Z,1.61
2018-12-13T01:51:54.138Z,1.70
2018-12-13T01:54:22.247Z,1.84
2018-12-13T01:56:50.404Z,1.67
2018-12-13T01:59:18.524Z,1.85
2018-12-13T02:01:46.868Z,2.01
2018-12-13T02:04:15.150Z,2.13
2018-12-13T02:06:43.330Z,2.04
2018-12-13T02:09:11.604Z,2.13
2018-12-13T02:11:39.916Z,2.22
2018-12-13T02:14:08.044Z,2.30
2018-12-13T02:16:36.140Z,2.36
2018-12-13T02:19:04.567Z,2.40
2018-12-13T02:21:32.684Z,2.55
2018-12-13T02:24:02.098Z,2.30
2018-12-13T02:26:30.500Z,2.28
2018-12-13T02:28:58.775Z,2.23
2018-12-13T02:31:27.054Z,2.10
2018-12-13T02:33:58.830Z,2.17
2018-12-13T02:36:27.164Z,2.22
2018-12-13T02:38:55.406Z,2.23
2018-12-13T02:41:23.613Z,2.29
2018-12-13T02:43:52.529Z,2.23
2018-12-13T02:46:20.708Z,2.24
2018-12-13T02:48:54.268Z,2.26
2018-12-13T02:51:22.421Z,2.21
2018-12-13T02:53:50.686Z,2.30
2018-12-13T02:56:18.809Z,2.24
2018-12-13T02:58:46.917Z,2.24
2018-12-13T03:01:15.055Z,2.32
2018-12-13T03:03:43.413Z,2.34
2018-12-13T03:06:11.568Z,2.32
2018-12-13T03:08:39.652Z,2.38
2018-12-13T03:11:07.799Z,2.47
2018-12-13T03:13:35.905Z,2.51
2018-12-13T03:16:04.402Z,2.50
2018-12-13T03:18:32.727Z,2.46
2018-12-13T03:21:00.838Z,2.49
2018-12-13T03:23:29.323Z,2.45
2018-12-13T03:25:57.527Z,2.38
2018-12-13T03:28:25.811Z,2.42
2018-12-13T03:30:53.952Z,2.30
2018-12-13T03:33:22.378Z,2.28
2018-12-13T03:35:50.461Z,2.33
2018-12-13T03:38:18.819Z,2.39
2018-12-13T03:40:46.949Z,2.47
2018-12-13T03:43:15.218Z,2.49
2018-12-13T03:45:43.426Z,2.43
2018-12-13T03:48:11.544Z,2.37
2018-12-13T03:50:39.786Z,2.30
2018-12-13T03:53:08.092Z,2.18
2018-12-13T03:55:36.237Z,2.08
2018-12-13T03:58:04.478Z,2.19
2018-12-13T04:00:32.615Z,2.13
2018-12-13T04:03:00.950Z,2.17
2018-12-13T04:05:30.325Z,2.06
2018-12-13T04:07:58.492Z,2.07
2018-12-13T04:10:26.816Z,2.21
2018-12-13T04:12:55.092Z,2.24
2018-12-13T04:15:23.227Z,2.18
2018-12-13T04:17:51.384Z,2.23
2018-12-13T04:20:19.740Z,2.34
2018-12-13T04:22:47.887Z,2.30
2018-12-13T04:25:16.218Z,2.39
2018-12-13T04:27:44.309Z,2.32
2018-12-13T04:30:12.760Z,2.21
2018-12-13T04:32:40.981Z,2.27
2018-12-13T04:35:09.163Z,2.30
2018-12-13T04:37:37.440Z,2.24
2018-12-13T04:40:05.862Z,2.27
2018-12-13T04:42:33.971Z,2.31
2018-12-13T04:45:02.520Z,2.17
2018-12-13T04:47:30.625Z,2.18
2018-12-13T04:49:59.034Z,2.05
2018-12-13T04:52:27.208Z,2.14
2018-12-13T04:54:55.536Z,2.14
2018-12-13T04:57:24.572Z,2.16
2018-12-13T04:59:52.745Z,2.24
2018-12-13T05:02:20.916Z,2.30
2018-12-13T05:04:49.198Z,2.33
2018-12-13T05:07:17.319Z,2.44
2018-12-13T05:09:52.418Z,2.40
2018-12-13T05:12:20.745Z,2.28
2018-12-13T05:14:48.857Z,2.45
2018-12-13T05:17:16.985Z,2.39
2018-12-13T05:19:45.234Z,2.46
2018-12-13T05:22:13.370Z,2.38
2018-12-13T05:24:41.551Z,2.42
2018-12-13T05:27:09.797Z,2.53
2018-12-13T05:29:38.111Z,2.62
2018-12-13T05:32:06.906Z,2.73
2018-12-13T05:34:35.233Z,2.74
2018-12-13T05:37:03.380Z,2.50
2018-12-13T05:39:31.824Z,2.48
2018-12-13T05:41:59.957Z,2.50
2018-12-13T05:44:28.645Z,2.69
2018-12-13T05:46:57.107Z,2.57
2018-12-13T05:49:25.463Z,2.55
2018-12-13T05:51:54.281Z,2.66
2018-12-13T05:54:22.898Z,2.64
2018-12-13T05:56:51.145Z,2.69
2018-12-13T05:59:19.455Z,2.67
2018-12-13T06:01:48.849Z,2.65
2018-12-13T06:04:17.008Z,2.61
2018-12-13T06:06:45.154Z,2.68
2018-12-13T06:09:13.336Z,2.72
2018-12-13T06:11:41.604Z,2.78
2018-12-13T06:14:09.750Z,2.83
2018-12-13T06:16:37.958Z,2.88
2018-12-13T06:19:06.128Z,2.99
2018-12-13T06:21:37.005Z,2.92
2018-12-13T06:24:04.620Z,2.87
2018-12-13T06:26:32.726Z,2.78
2018-12-13T06:29:00.976Z,2.75
2018-12-13T06:31:29.252Z,2.70
2018-12-13T06:33:57.497Z,2.79
2018-12-13T06:36:25.778Z,2.78
2018-12-13T06:38:53.941Z,2.73
2018-12-13T06:41:23.019Z,2.81
2018-12-13T06:43:52.326Z,2.79
2018-12-13T06:46:20.937Z,2.61
2018-12-13T06:48:49.089Z,2.53
2018-12-13T06:51:17.232Z,2.68
2018-12-13T06:53:45.303Z,2.74
2018-12-13T06:56:13.439Z,2.72
2018-12-13T06:58:41.585Z,2.68
2018-12-13T07:01:10.039Z,2.59
2018-12-13T07:03:38.203Z,2.62
2018-12-13T07:06:06.365Z,2.65
2018-12-13T07:08:34.671Z,2.65
2018-12-13T07:11:03.010Z,2.75
2018-12-13T07:13:31.196Z,2.75
2018-12-13T07:15:59.532Z,2.58
2018-12-13T07:18:27.690Z,2.71
2018-12-13T07:20:55.894Z,2.57
2018-12-13T07:23:24.103Z,2.59
2018-12-13T07:25:52.235Z,2.61
2018-12-13T07:28:20.441Z,2.62
2018-12-13T07:30:48.781Z,2.67
2018-12-13T07:33:16.988Z,2.63
2018-12-13T07:35:45.169Z,2.63
2018-12-13T07:38:14.472Z,2.64
2018-12-13T07:40:43.220Z,2.57
2018-12-13T07:43:11.348Z,2.62
2018-12-13T07:45:39.518Z,2.62
2018-12-13T07:48:07.896Z,2.66
2018-12-13T07:50:36.056Z,2.73
2018-12-13T07:53:04.361Z,2.74
2018-12-13T07:55:32.465Z,2.83
2018-12-13T07:58:00.586Z,2.82
2018-12-13T08:00:28.956Z,2.72
2018-12-13T08:02:57.326Z,2.75
2018-12-13T08:05:27.578Z,2.93
2018-12-13T08:07:55.859Z,2.90
2018-12-13T08:10:24.010Z,2.91
2018-12-13T08:12:52.175Z,2.97
2018-12-13T08:15:21.566Z,2.98
2018-12-13T08:17:49.663Z,2.90
2018-12-13T08:20:17.872Z,2.83
2018-12-13T08:22:46.247Z,2.73
2018-12-13T08:25:14.368Z,2.80
2018-12-13T08:27:42.518Z,2.85
2018-12-13T08:30:10.856Z,3.02
2018-12-13T08:32:39.237Z,2.74
2018-12-13T08:35:07.602Z,2.81
2018-12-13T08:37:35.694Z,3.01
2018-12-13T08:40:04.956Z,3.09
2018-12-13T08:42:33.076Z,3.02
2018-12-13T08:45:01.229Z,3.18
2018-12-13T08:47:29.360Z,3.14
2018-12-13T08:49:57.465Z,3.18
2018-12-13T08:52:25.637Z,3.05
2018-12-13T08:54:53.749Z,3.13
2018-12-13T08:57:21.875Z,3.23
2018-12-13T08:59:49.983Z,3.18
2018-12-13T09:02:18.259Z,3.18
2018-12-13T09:04:46.369Z,3.26
2018-12-13T09:07:14.431Z,3.26
2018-12-13T09:09:42.629Z,3.46
2018-12-13T09:12:10.758Z,3.36
2018-12-13T09:14:38.925Z,3.39
2018-12-13T09:17:07.030Z,3.46
2018-12-13T09:19:35.258Z,3.48
2018-12-13T09:22:03.624Z,3.45
2018-12-13T09:24:31.736Z,3.56
2018-12-13T09:26:59.888Z,3.58
2018-12-13T09:29:28.147Z,3.57
2018-12-13T09:31:56.250Z,3.81
2018-12-13T09:34:24.474Z,3.85
2018-12-13T09:36:52.635Z,3.93
2018-12-13T09:39:20.798Z,3.92
2018-12-13T09:41:49.142Z,4.08
2018-12-13T09:44:17.302Z,4.03
2018-12-13T09:46:46.590Z,4.27
2018-12-13T09:49:14.823Z,4.30
2018-12-13T09:51:43.037Z,4.35
2018-12-13T09:54:11.134Z,4.34
2018-12-13T09:56:39.336Z,4.37
2018-12-13T09:59:07.445Z,4.26
2018-12-13T10:01:35.574Z,4.18
2018-12-13T10:04:03.906Z,4.22
2018-12-13T10:06:32.114Z,4.16
2018-12-13T10:09:00.259Z,4.20
2018-12-13T10:11:28.556Z,4.27
2018-12-13T10:13:56.711Z,4.18
2018-12-13T10:16:24.965Z,4.25
2018-12-13T10:18:53.142Z,4.23
2018-12-13T10:21:21.305Z,4.18
2018-12-13T10:23:49.424Z,4.20
2018-12-13T10:26:17.723Z,4.21
2018-12-13T10:28:45.915Z,4.23
2018-12-13T10:31:14.336Z,4.20
2018-12-13T10:33:42.504Z,4.23
2018-12-13T10:36:10.727Z,4.20
2018-12-13T10:38:39.028Z,4.16
2018-12-13T10:41:07.090Z,4.25
2018-12-13T10:43:35.212Z,4.29
2018-12-13T10:46:03.310Z,4.31
2018-12-13T10:48:31.870Z,4.25
2018-12-13T10:51:00.106Z,4.10
2018-12-13T10:53:28.232Z,3.99
2018-12-13T10:55:56.337Z,3.73
2018-12-13T10:58:24.511Z,3.83
2018-12-13T11:00:58.503Z,3.90
2018-12-13T11:03:41.452Z,4.06
2018-12-13T11:06:09.594Z,4.03
2018-12-13T11:08:37.782Z,4.04
2018-12-13T11:11:06.034Z,4.18
2018-12-13T11:13:34.183Z,4.34
2018-12-13T11:16:02.358Z,4.44
2018-12-13T11:18:30.530Z,4.62
2018-12-13T11:20:58.680Z,4.59
2018-12-13T11:23:26.824Z,4.68
2018-12-13T11:25:54.968Z,4.72
2018-12-13T11:29:39.554Z,4.72
2018-12-13T11:32:07.659Z,4.71
2018-12-13T11:34:36.329Z,4.73
2018-12-13T11:37:04.532Z,4.61
2018-12-13T11:39:32.620Z,4.56
2018-12-13T11:42:00.710Z,4.44
2018-12-13T11:44:29.897Z,4.54
2018-12-13T11:46:58.229Z,4.47
2018-12-13T11:49:26.440Z,4.33
2018-12-13T11:51:54.566Z,4.46
2018-12-13T11:54:55.543Z,4.39
2018-12-13T11:57:24.371Z,4.34
2018-12-13T11:59:52.521Z,4.31
2018-12-13T12:02:24.026Z,4.35
2018-12-13T12:04:50.683Z,4.50
2018-12-13T12:07:18.858Z,4.47
2018-12-13T12:09:46.940Z,4.38
2018-12-13T12:12:15.061Z,4.55
2018-12-13T12:14:43.193Z,4.66
2018-12-13T12:17:11.278Z,4.73
2018-12-13T12:19:39.397Z,4.59
2018-12-13T12:22:07.540Z,4.59
2018-12-13T12:24:35.696Z,4.51
2018-12-13T12:27:03.902Z,4.40
2018-12-13T12:29:31.969Z,4.54
2018-12-13T12:32:00.104Z,4.49
2018-12-13T12:34:28.250Z,4.38
2018-12-13T12:36:56.370Z,4.46
2018-12-13T12:39:24.504Z,4.64
2018-12-13T12:41:52.664Z,4.63
2018-12-13T12:44:20.798Z,4.59
2018-12-13T12:46:48.903Z,4.52
2018-12-13T12:49:16.996Z,4.50
2018-12-13T12:51:45.139Z,4.56
2018-12-13T12:54:13.276Z,4.38
2018-12-13T12:56:41.498Z,4.29
2018-12-13T12:59:09.592Z,4.24
2018-12-13T13:01:37.902Z,4.09
2018-12-13T13:04:06.153Z,4.14
2018-12-13T13:06:34.316Z,4.17
2018-12-13T13:09:03.812Z,4.10
2018-12-13T13:11:31.933Z,4.20
2018-12-13T13:14:00.119Z,4.08
2018-12-13T13:16:28.285Z,4.06
2018-12-13T13:18:56.553Z,4.08
2018-12-13T13:21:24.667Z,4.13
2018-12-13T13:23:52.739Z,4.22
2018-12-13T13:26:20.915Z,4.07
2018-12-13T13:28:49.118Z,4.09
2018-12-13T13:31:18.599Z,4.05
2018-12-13T13:33:47.230Z,4.11
2018-12-13T13:36:15.566Z,4.03
2018-12-13T13:38:43.703Z,3.92
2018-12-13T13:41:11.880Z,3.87
2018-12-13T13:43:43.116Z,3.79
2018-12-13T13:46:12.640Z,3.89
2018-12-13T13:48:41.822Z,3.90
2018-12-13T13:51:09.948Z,3.85
2018-12-13T13:53:38.050Z,3.91
2018-12-13T13:56:06.212Z,3.97
2018-12-13T13:58:34.480Z,3.84
2018-12-13T14:01:02.672Z,3.82
2018-12-13T14:03:30.776Z,3.83
2018-12-13T14:05:59.307Z,3.79
2018-12-13T14:08:27.410Z,3.83
2018-12-13T14:10:55.607Z,3.79
2018-12-13T14:13:23.707Z,3.70
2018-12-13T14:15:51.949Z,3.65
2018-12-13T14:18:20.106Z,3.68
2018-12-13T14:20:48.353Z,3.64
2018-12-13T14:23:17.613Z,3.59
2018-12-13T14:25:45.769Z,3.46
2018-12-13T14:28:13.905Z,3.47
2018-12-13T14:30:42.158Z,3.51
2018-12-13T14:33:10.686Z,3.43
2018-12-13T14:35:39.123Z,3.49
2018-12-13T14:38:07.249Z,3.61
2018-12-13T14:40:35.352Z,3.50
2018-12-13T14:43:03.554Z,3.37
2018-12-13T14:45:31.747Z,3.52
2018-12-13T14:47:59.889Z,3.57
2018-12-13T14:50:28.090Z,3.49
2018-12-13T14:52:56.223Z,3.50
2018-12-13T14:55:24.338Z,3.41
2018-12-13T14:57:52.501Z,3.41
2018-12-13T15:00:20.706Z,3.55
2018-12-13T15:02:48.805Z,3.45
2018-12-13T15:05:16.983Z,3.31
2018-12-13T15:07:45.145Z,3.34
2018-12-13T15:10:13.261Z,3.41
2018-12-13T15:12:41.444Z,3.42
2018-12-13T15:15:09.845Z,3.33
2018-12-13T15:17:39.227Z,3.22
2018-12-13T15:20:09.545Z,3.28
2018-12-13T15:22:37.724Z,3.38
2018-12-13T15:25:07.555Z,3.37
2018-12-13T15:27:35.843Z,3.51
2018-12-13T15:30:04.811Z,3.57
2018-12-13T15:32:32.963Z,3.46
2018-12-13T15:35:01.107Z,3.38
2018-12-13T15:37:36.313Z,3.57
2018-12-13T15:40:04.804Z,3.45
2018-12-13T15:42:32.898Z,3.39
2018-12-13T15:45:01.032Z,3.37
2018-12-13T15:47:29.171Z,3.30
2018-12-13T15:49:57.398Z,3.35
2018-12-13T15:52:25.525Z,3.42
2018-12-13T15:54:53.694Z,3.40
2018-12-13T15:57:21.752Z,3.40
2018-12-13T15:59:49.942Z,3.37
2018-12-13T16:02:18.031Z,3.38
2018-12-13T16:04:46.158Z,3.40
2018-12-13T16:07:14.215Z,3.48
2018-12-13T16:09:42.427Z,3.44
2018-12-13T16:12:10.635Z,3.45
2018-12-13T16:14:38.758Z,3.40
2018-12-13T16:17:07.034Z,3.43
2018-12-13T16:19:35.109Z,3.53
2018-12-13T16:22:03.343Z,3.42
2018-12-13T16:24:31.459Z,3.38
2018-12-13T16:26:59.585Z,3.25
2018-12-13T16:29:27.671Z,3.20
2018-12-13T16:31:59.699Z,3.10
2018-12-13T16:34:27.786Z,3.17
2018-12-13T16:36:56.316Z,3.44
2018-12-13T16:39:24.425Z,3.36
2018-12-13T16:41:52.713Z,3.37
2018-12-13T16:44:21.632Z,3.43
2018-12-13T16:46:49.893Z,3.31
2018-12-13T16:49:18.899Z,3.45
2018-12-13T16:51:47.088Z,3.31
2018-12-13T16:54:15.304Z,3.27
2018-12-13T16:56:43.430Z,3.22
2018-12-13T16:59:11.521Z,3.34
2018-12-13T17:01:40.726Z,3.37
2018-12-13T17:04:08.888Z,3.38
2018-12-13T17:06:37.126Z,3.30
2018-12-13T17:09:06.880Z,3.37
2018-12-13T17:11:35.350Z,3.24
2018-12-13T17:14:03.556Z,3.23
2018-12-13T17:16:31.682Z,3.25
2018-12-13T17:18:59.756Z,3.33
2018-12-13T17:21:27.860Z,3.36
2018-12-13T17:23:56.014Z,3.40
2018-12-13T17:26:24.207Z,3.40
2018-12-13T17:28:52.322Z,3.38
2018-12-13T17:31:20.554Z,3.36
2018-12-13T17:33:48.664Z,3.26
2018-12-13T17:36:16.777Z,3.30
2018-12-13T17:38:45.643Z,3.37
2018-12-13T17:41:13.991Z,3.31
2018-12-13T17:43:42.070Z,3.39
2018-12-13T17:46:10.307Z,3.37
2018-12-13T17:48:38.458Z,3.28
2018-12-13T17:51:07.089Z,3.19
2018-12-13T17:53:35.561Z,3.25
2018-12-13T17:56:04.395Z,3.19
2018-12-13T17:58:32.678Z,3.20
2018-12-13T18:01:03.097Z,3.20
2018-12-13T18:03:31.260Z,3.29
2018-12-13T18:06:00.356Z,3.26
2018-12-13T18:08:29.241Z,3.18
2018-12-13T18:10:57.386Z,3.09
2018-12-13T18:13:26.278Z,3.13
2018-12-13T18:15:54.476Z,3.21
2018-12-13T18:18:23.157Z,3.20
2018-12-13T18:20:51.827Z,3.18
2018-12-13T18:23:22.158Z,3.14
2018-12-13T18:25:50.325Z,3.20
2018-12-13T18:28:19.499Z,3.10
2018-12-13T18:30:47.605Z,2.98
2018-12-13T18:33:16.555Z,3.15
2018-12-13T18:35:45.266Z,3.19
2018-12-13T18:38:20.437Z,3.14
2018-12-13T18:40:48.621Z,3.20
2018-12-13T18:43:16.731Z,3.27
2018-12-13T18:45:44.840Z,2.99
2018-12-13T18:48:13.771Z,3.03
2018-12-13T18:50:41.905Z,3.02
2018-12-13T18:53:11.257Z,2.98
2018-12-13T18:55:39.687Z,3.08
2018-12-13T18:58:07.821Z,3.08
2018-12-13T19:00:36.766Z,3.28
2018-12-13T19:03:05.604Z,3.16
2018-12-13T19:05:34.336Z,3.17
2018-12-13T19:08:02.571Z,3.08
2018-12-13T19:10:30.765Z,3.16
2018-12-13T19:12:58.899Z,3.20
2018-12-13T19:15:27.109Z,3.15
2018-12-13T19:17:55.235Z,3.10
2018-12-13T19:20:23.957Z,3.11
2018-12-13T19:22:52.845Z,3.12
2018-12-13T19:25:20.976Z,3.22
2018-12-13T19:27:49.191Z,3.18
2018-12-13T19:30:17.687Z,2.92
2018-12-13T19:32:45.944Z,2.96
2018-12-13T19:35:19.331Z,2.90
2018-12-13T19:37:44.320Z,2.81
2018-12-13T19:40:12.524Z,2.94
2018-12-13T19:42:40.723Z,2.91
2018-12-13T19:45:08.861Z,2.90
2018-12-13T19:47:37.099Z,2.94
2018-12-13T19:50:05.686Z,2.95
2018-12-13T19:52:33.831Z,2.78
2018-12-13T19:55:01.916Z,2.91
2018-12-13T19:57:30.805Z,2.92
2018-12-13T19:59:58.986Z,2.92
2018-12-13T20:02:27.138Z,2.89
2018-12-13T20:04:55.328Z,2.88
2018-12-13T20:07:23.660Z,2.92
2018-12-13T20:09:51.762Z,3.01
2018-12-13T20:12:20.009Z,2.90
2018-12-13T20:14:49.050Z,2.84
2018-12-13T20:17:17.273Z,2.93
2018-12-13T20:19:45.364Z,2.84
2018-12-13T20:22:13.521Z,2.94
2018-12-13T20:24:41.614Z,2.98
2018-12-13T20:27:09.794Z,2.91
2018-12-13T20:29:38.566Z,2.93
2018-12-13T20:34:55.287Z,2.82
2018-12-13T20:37:23.766Z,2.83
2018-12-13T20:39:51.855Z,2.81
2018-12-13T20:42:20.017Z,2.77
2018-12-13T20:44:48.131Z,2.83
2018-12-13T20:47:16.268Z,2.72
2018-12-13T20:49:44.354Z,2.71
2018-12-13T20:52:12.473Z,2.77
2018-12-13T20:54:40.574Z,2.74
2018-12-13T20:57:08.688Z,2.91
2018-12-13T20:59:36.814Z,2.95
2018-12-13T21:02:05.364Z,2.92
2018-12-13T21:04:33.507Z,2.92
2018-12-13T21:07:07.500Z,2.97
2018-12-13T21:09:35.647Z,2.70
2018-12-13T21:12:03.866Z,2.82
2018-12-13T21:14:32.231Z,2.91
2018-12-13T21:17:00.340Z,2.76
2018-12-13T21:19:28.450Z,2.78
2018-12-13T21:21:56.588Z,2.90
2018-12-13T21:24:24.697Z,2.92
2018-12-13T21:26:52.931Z,2.84
2018-12-13T21:29:21.018Z,3.03
2018-12-13T21:31:49.194Z,2.91
2018-12-13T21:34:17.337Z,2.87
2018-12-13T21:36:45.480Z,2.80
2018-12-13T21:39:13.665Z,2.86
2018-12-13T21:41:41.796Z,2.86
2018-12-13T21:44:09.877Z,2.88
2018-12-13T21:46:38.031Z,2.81
2018-12-13T21:49:06.310Z,2.95
2018-12-13T21:51:34.576Z,2.99
2018-12-13T21:54:02.841Z,2.91
2018-12-13T21:56:30.966Z,2.91
2018-12-13T21:59:03.644Z,2.95
2018-12-13T22:01:29.382Z,2.81
2018-12-13T22:03:57.536Z,2.82
2018-12-13T22:06:25.768Z,2.80
2018-12-13T22:08:53.891Z,2.79
2018-12-13T22:11:22.055Z,2.92
2018-12-13T22:13:50.170Z,2.91
2018-12-13T22:16:18.472Z,2.84
2018-12-13T22:18:46.708Z,2.84
2018-12-13T22:21:14.964Z,2.70
2018-12-13T22:23:43.139Z,2.62
2018-12-13T22:26:11.513Z,2.63
2018-12-13T22:28:40.073Z,2.57
2018-12-13T22:31:09.663Z,2.59
2018-12-13T22:33:42.088Z,2.72
2018-12-13T22:36:10.269Z,2.72
2018-12-13T22:38:38.438Z,2.69
2018-12-13T22:41:06.805Z,2.77
2018-12-13T22:43:35.117Z,2.74
2018-12-13T22:46:03.818Z,2.69
2018-12-13T22:48:32.733Z,2.60
2018-12-13T22:51:02.004Z,2.68
2018-12-13T22:53:30.181Z,2.64
2018-12-13T22:55:58.421Z,2.62
2018-12-13T22:58:26.755Z,2.70
2018-12-13T23:00:55.167Z,2.54
2018-12-13T23:03:23.365Z,2.52
2018-12-13T23:05:51.592Z,2.58
2018-12-13T23:08:19.807Z,2.67
2018-12-13T23:10:48.237Z,2.80
2018-12-13T23:13:16.399Z,2.74
2018-12-13T23:15:44.535Z,2.71
2018-12-13T23:18:12.701Z,2.80
2018-12-13T23:20:40.813Z,2.69
2018-12-13T23:23:08.961Z,2.78
2018-12-13T23:25:37.111Z,2.76
2018-12-13T23:28:05.392Z,2.79
2018-12-13T23:30:33.499Z,2.84
2018-12-13T23:33:01.649Z,2.79
2018-12-13T23:35:29.941Z,2.75
2018-12-13T23:37:58.157Z,2.72
2018-12-13T23:40:26.495Z,2.83
2018-12-13T23:42:55.460Z,2.87
2018-12-13T23:45:23.655Z,2.90
2018-12-13T23:47:52.060Z,2.86
2018-12-13T23:50:20.881Z,2.93
2018-12-13T23:52:49.203Z,2.96
2018-12-13T23:55:17.512Z,2.96
2018-12-13T23:57:45.690Z,2.91
